Time;durP1;ratioP1;P1;durP2;ratioP2;P2;SDS_P1;SDS_P2;PMS_P1;PMS_P2;Temp;Humidity;BMP_temperature;BMP_pressure;BME280_temperature;BME280_humidity;BME280_pressure;Samples;Min_cycle;Max_cycle;Signal;HPM_P1;HPM_P2
2022/08/08 00:02:09;;;;;;;4.43;1.55;;;;;;;26.15;32.82;102138.91;5058166;28;20024;-65
2022/08/08 00:04:41;;;;;;;3.25;1.42;;;;;;;26.05;33.08;102126.31;5058165;28;20116;-65
2022/08/08 00:07:37;;;;;;;4.53;2.00;;;;;;;26.05;33.13;102123.56;5058208;28;20471;-65
2022/08/08 00:10:14;;;;;;;2.53;1.52;;;;;;;25.99;33.01;102127.13;5057993;28;20028;-65
2022/08/08 00:13:04;;;;;;;3.63;1.90;;;;;;;25.93;33.35;102127.06;5058083;28;20028;-65
2022/08/08 00:15:38;;;;;;;2.67;1.60;;;;;;;25.87;33.60;102131.47;5041406;28;20025;-65
2022/08/08 00:18:18;;;;;;;3.08;1.50;;;;;;;25.77;33.30;102128.19;5058149;28;20115;-65
2022/08/08 00:20:48;;;;;;;4.35;2.10;;;;;;;25.65;33.49;102129.78;5057846;28;20044;-65
2022/08/08 00:23:35;;;;;;;3.38;1.83;;;;;;;25.52;33.39;102124.13;5057963;28;20040;-65
2022/08/08 00:26:02;;;;;;;1.80;1.27;;;;;;;25.42;33.47;102129.94;5057983;28;20512;-65
2022/08/08 00:28:35;;;;;;;4.22;1.67;;;;;;;25.32;33.70;102137.59;5058032;28;20044;-65
2022/08/08 00:31:00;;;;;;;3.55;1.63;;;;;;;25.25;33.86;102133.09;5041163;28;20039;-65
2022/08/08 00:33:29;;;;;;;4.15;1.83;;;;;;;25.14;33.48;102130.84;5057962;28;20017;-65
2022/08/08 00:36:25;;;;;;;1.75;1.52;;;;;;;25.09;34.60;102127.84;5041186;28;20032;-65
2022/08/08 00:39:09;;;;;;;4.75;1.85;;;;;;;24.98;34.31;102125.59;5054002;28;20013;-65
2022/08/08 00:41:54;;;;;;;2.47;2.03;;;;;;;24.97;34.45;102134.84;5054699;28;20108;-65
2022/08/08 00:44:28;;;;;;;3.58;1.80;;;;;;;24.97;34.49;102130.22;5038076;28;20449;-65
2022/08/08 00:47:26;;;;;;;3.00;2.08;;;;;;;24.98;35.00;102131.94;5055878;28;20021;-64
2022/08/08 00:50:20;;;;;;;3.65;1.80;;;;;;;24.99;34.58;102130.03;5054680;28;20083;-65
2022/08/08 00:53:18;;;;;;;3.08;2.15;;;;;;;24.99;34.25;102132.75;5054539;28;20386;-65
2022/08/08 00:55:43;;;;;;;6.57;2.38;;;;;;;24.98;34.39;102134.69;5054791;28;20102;-65
2022/08/08 00:58:31;;;;;;;3.08;1.75;;;;;;;25.00;34.88;102131.72;5054370;28;20021;-65
2022/08/08 01:01:12;;;;;;;9.05;2.72;;;;;;;25.00;35.41;102139.97;5054350;28;20025;-64
2022/08/08 01:03:48;;;;;;;3.03;2.28;;;;;;;24.98;35.15;102133.81;5054201;28;20545;-65
2022/08/08 01:06:22;;;;;;;5.38;2.53;;;;;;;24.99;34.63;102130.03;5037600;28;20028;-64
2022/08/08 01:08:51;;;;;;;5.32;2.20;;;;;;;24.98;34.70;102125.59;5054302;28;20025;-65
2022/08/08 01:11:53;;;;;;;6.05;2.50;;;;;;;24.96;34.97;102127.69;5054075;28;20117;-65
2022/08/08 01:14:49;;;;;;;4.72;1.95;;;;;;;24.94;35.48;102130.59;5055392;28;20025;-64
2022/08/08 01:17:18;;;;;;;5.47;2.80;;;;;;;24.92;35.41;102138.19;5053908;28;20032;-65
2022/08/08 01:19:58;;;;;;;6.10;2.50;;;;;;;24.92;35.00;102124.47;5055308;28;20052;-65
2022/08/08 01:22:42;;;;;;;3.70;2.33;;;;;;;24.90;35.90;102124.66;5055082;28;20048;-65
2022/08/08 01:25:13;;;;;;;3.10;2.70;;;;;;;24.88;35.73;102123.16;5053870;28;20032;-65
2022/08/08 01:28:06;;;;;;;3.75;2.47;;;;;;;24.86;35.23;102122.50;5055080;28;20505;-65
2022/08/08 01:30:52;;;;;;;5.57;3.00;;;;;;;24.82;35.86;102116.53;5053787;28;20386;-64
2022/08/08 01:33:17;;;;;;;3.83;2.65;;;;;;;24.79;35.99;102122.41;5053617;28;20505;-65
2022/08/08 01:36:36;;;;;;;6.18;2.60;;;;;;;24.77;35.37;102124.44;5054972;28;20025;-64
2022/08/08 01:39:07;;;;;;;3.25;2.40;;;;;;;24.74;35.86;102119.34;5036058;28;20119;-65
2022/08/08 01:41:42;;;;;;;5.15;2.38;;;;;;;24.73;35.29;102120.41;5036052;28;20521;-65
2022/08/08 01:44:40;;;;;;;13.43;3.33;;;;;;;24.71;35.79;102119.72;5044626;28;20037;-65
2022/08/08 01:47:42;;;;;;;5.38;2.97;;;;;;;24.65;36.16;102109.50;5036853;28;20504;-64
2022/08/08 01:50:25;;;;;;;5.40;2.58;;;;;;;24.63;35.86;102125.31;5035822;28;20028;-64
2022/08/08 01:52:52;;;;;;;5.85;3.05;;;;;;;24.61;36.58;102124.66;5054653;28;20028;-65
2022/08/08 01:55:53;;;;;;;7.07;3.17;;;;;;;24.61;35.63;102118.31;5036694;28;20023;-65
2022/08/08 01:58:41;;;;;;;9.48;3.45;;;;;;;24.57;36.60;102125.19;5036611;28;20087;-65
2022/08/08 02:01:18;;;;;;;6.30;2.78;;;;;;;24.55;35.84;102122.66;5053201;28;20032;-64
2022/08/08 02:04:24;;;;;;;6.05;3.20;;;;;;;24.53;36.46;102124.75;5053145;28;20086;-64
2022/08/08 02:07:09;;;;;;;5.22;3.08;;;;;;;24.48;36.75;102124.47;5054399;28;20474;-64
2022/08/08 02:09:49;;;;;;;7.72;3.05;;;;;;;24.44;36.81;102122.28;5053098;28;20027;-65
2022/08/08 02:12:21;;;;;;;3.97;2.75;;;;;;;24.43;36.23;102132.38;5053112;28;20025;-64
2022/08/08 02:15:08;;;;;;;4.03;2.58;;;;;;;24.40;36.03;102132.75;5036397;28;20437;-64
2022/08/08 02:17:55;;;;;;;4.97;2.95;;;;;;;24.34;36.30;102133.53;5053061;28;20116;-64
2022/08/08 02:20:27;;;;;;;4.72;3.08;;;;;;;24.30;36.01;102132.19;5052844;28;20031;-64
2022/08/08 02:23:09;;;;;;;9.40;3.03;;;;;;;24.24;36.64;102133.78;5052577;28;20154;-65
2022/08/08 02:26:09;;;;;;;4.50;3.38;;;;;;;24.19;36.73;102130.78;5036084;28;20028;-64
2022/08/08 02:29:14;;;;;;;5.63;2.85;;;;;;;24.12;37.42;102128.97;5051485;28;20048;-64
2022/08/08 02:31:51;;;;;;;5.53;3.22;;;;;;;24.05;36.97;102127.97;5052600;28;20020;-64
2022/08/08 02:34:45;;;;;;;5.68;2.70;;;;;;;23.95;36.33;102130.97;5052695;28;20017;-64
2022/08/08 02:37:25;;;;;;;6.80;2.80;;;;;;;23.82;36.33;102127.13;5053811;28;20031;-64
2022/08/08 02:39:57;;;;;;;4.47;2.90;;;;;;;23.72;37.40;102128.25;5052705;28;20258;-64
2022/08/08 02:43:00;;;;;;;4.67;3.00;;;;;;;23.61;36.60;102123.22;5053662;28;20074;-64
2022/08/08 02:45:50;;;;;;;5.22;2.95;;;;;;;23.48;37.03;102125.69;5053467;28;20033;-65
2022/08/08 02:48:25;;;;;;;6.95;3.15;;;;;;;23.38;37.49;102122.34;5035764;28;20047;-64
2022/08/08 02:51:02;;;;;;;9.63;3.20;;;;;;;23.28;37.62;102124.44;5053524;28;20021;-64
2022/08/08 02:53:36;;;;;;;4.20;2.80;;;;;;;23.19;37.75;102125.53;5053621;28;20021;-64
2022/08/08 02:56:38;;;;;;;5.93;2.70;;;;;;;23.09;36.81;102122.13;5053490;28;20478;-65
2022/08/08 02:59:10;;;;;;;4.67;2.83;;;;;;;22.98;36.79;102114.34;5053474;28;20433;-64
2022/08/08 03:02:14;;;;;;;4.95;3.13;;;;;;;22.89;37.04;102123.63;5051718;28;20414;-64
2022/08/08 03:04:48;;;;;;;10.85;3.58;;;;;;;22.79;37.66;102118.38;5051957;28;20489;-64
2022/08/08 03:07:43;;;;;;;4.70;3.03;;;;;;;22.72;37.22;102127.47;5052017;28;20025;-64
2022/08/08 03:10:28;;;;;;;7.25;2.72;;;;;;;22.66;38.34;102130.88;5052378;28;20052;-64
2022/08/08 03:13:21;;;;;;;4.38;2.55;;;;;;;22.53;37.54;102118.59;5052007;28;20071;-65
2022/08/08 03:16:19;;;;;;;6.05;3.50;;;;;;;22.50;37.50;102118.13;5053275;28;20102;-64
2022/08/08 03:18:58;;;;;;;6.53;3.40;;;;;;;22.37;38.42;102115.06;5051874;28;20037;-64
2022/08/08 03:21:23;;;;;;;8.95;3.17;;;;;;;22.38;37.89;102125.81;5051796;28;20137;-64
2022/08/08 03:23:48;;;;;;;9.65;3.20;;;;;;;22.34;38.48;102135.38;5053042;28;20526;-65
2022/08/08 03:26:15;;;;;;;3.75;2.72;;;;;;;22.30;38.08;102133.19;5052083;28;20399;-64
2022/08/08 03:28:57;;;;;;;7.15;2.70;;;;;;;22.24;38.89;102129.28;5051940;28;20062;-64
2022/08/08 03:34:08;;;;;;;4.30;3.17;;;;;;;22.18;38.61;102149.06;5052105;28;20440;-65
2022/08/08 03:36:39;;;;;;;9.20;3.10;;;;;;;22.15;38.68;102146.69;5035288;28;20515;-65
2022/08/08 03:39:05;;;;;;;9.85;3.10;;;;;;;22.10;38.36;102146.34;5051696;28;20020;-64
2022/08/08 03:41:32;;;;;;;6.60;3.33;;;;;;;22.04;38.81;102153.34;5035125;28;20025;-64
2022/08/08 03:43:57;;;;;;;5.90;2.95;;;;;;;22.01;38.99;102161.00;5052827;28;20025;-64
2022/08/08 03:46:23;;;;;;;4.50;3.00;;;;;;;21.95;38.52;102156.25;5051713;28;20497;-64
2022/08/08 03:48:56;;;;;;;4.25;2.80;;;;;;;21.93;39.30;102158.28;5051706;28;20021;-64
2022/08/08 03:51:22;;;;;;;7.40;2.92;;;;;;;21.88;39.21;102160.69;5034963;28;20031;-64
2022/08/08 03:53:47;;;;;;;5.32;2.83;;;;;;;21.87;38.77;102164.44;5051738;28;20025;-64
2022/08/08 03:56:14;;;;;;;4.18;2.92;;;;;;;21.85;39.59;102166.44;5051912;28;20056;-64
2022/08/08 03:58:40;;;;;;;7.78;3.90;;;;;;;21.83;39.75;102161.16;5051659;28;20025;-64
2022/08/08 04:01:06;;;;;;;6.65;3.75;;;;;;;21.80;39.48;102164.22;5052769;28;20017;-64
2022/08/08 04:03:34;;;;;;;4.93;3.33;;;;;;;21.74;39.50;102159.47;5034849;28;20036;-64
2022/08/08 04:06:05;;;;;;;8.48;3.60;;;;;;;21.76;40.00;102173.78;5051548;28;20032;-64
2022/08/08 04:08:30;;;;;;;8.50;3.05;;;;;;;21.72;39.52;102168.84;5051491;28;20017;-64
2022/08/08 04:10:55;;;;;;;7.07;3.17;;;;;;;21.69;39.50;102169.16;5051414;28;20028;-64
2022/08/08 04:13:21;;;;;;;6.57;3.47;;;;;;;21.65;39.34;102170.50;5053642;28;20112;-64
2022/08/08 04:15:46;;;;;;;5.28;3.03;;;;;;;21.64;40.17;102174.25;5038582;28;20067;-64
2022/08/08 04:18:12;;;;;;;6.13;3.13;;;;;;;21.60;40.04;102170.19;5055280;28;20060;-64
2022/08/08 04:20:38;;;;;;;16.13;4.15;;;;;;;21.59;40.34;102180.22;5055043;28;20025;-64
2022/08/08 04:23:04;;;;;;;7.13;3.30;;;;;;;21.53;39.96;102178.16;5055114;28;20083;-64
2022/08/08 04:25:30;;;;;;;7.25;3.20;;;;;;;21.53;40.18;102180.03;5055027;28;20115;-64
2022/08/08 04:27:55;;;;;;;7.75;3.30;;;;;;;21.57;39.70;102195.06;5054979;28;20031;-64
2022/08/08 04:30:21;;;;;;;7.18;3.97;;;;;;;21.53;40.11;102188.22;5054902;28;20037;-64
2022/08/08 04:32:47;;;;;;;7.70;3.70;;;;;;;21.57;40.28;102184.16;5056197;28;20033;-64
2022/08/08 04:35:12;;;;;;;6.28;3.70;;;;;;;21.54;40.33;102190.78;5038267;28;20017;-64
2022/08/08 04:37:37;;;;;;;9.52;3.72;;;;;;;21.53;40.19;102189.06;5038276;28;20021;-64
2022/08/08 04:40:03;;;;;;;6.40;3.85;;;;;;;21.51;39.94;102190.25;5038162;28;20044;-64
2022/08/08 04:42:32;;;;;;;12.75;4.25;;;;;;;21.49;40.12;102187.72;5038272;28;20086;-64
2022/08/08 04:44:58;;;;;;;6.13;3.15;;;;;;;21.50;40.40;102186.69;5054621;28;20029;-64
2022/08/08 04:47:23;;;;;;;7.47;4.00;;;;;;;21.53;40.87;102193.66;5054698;28;20032;-64
2022/08/08 04:49:48;;;;;;;8.27;3.80;;;;;;;21.54;40.37;102193.50;5054590;28;20086;-64
2022/08/08 04:52:15;;;;;;;8.50;4.22;;;;;;;21.62;40.36;102200.84;5055806;28;20368;-64
2022/08/08 04:54:40;;;;;;;12.80;4.88;;;;;;;21.66;39.95;102192.19;5055755;28;20028;-64
2022/08/08 04:57:05;;;;;;;7.05;4.45;;;;;;;21.73;40.08;102198.66;5054515;28;20036;-64
2022/08/08 04:59:31;;;;;;;14.68;4.63;;;;;;;21.82;40.61;102199.53;5037797;28;20045;-64
2022/08/08 05:01:56;;;;;;;7.60;3.80;;;;;;;21.85;40.64;102188.28;5055673;28;20025;-64
2022/08/08 05:04:22;;;;;;;8.65;4.53;;;;;;;21.96;40.54;102197.00;5037691;28;20025;-64
2022/08/08 05:06:47;;;;;;;13.10;4.50;;;;;;;22.06;40.99;102196.84;5021211;28;20086;-64
2022/08/08 05:09:13;;;;;;;9.15;4.35;;;;;;;22.12;40.29;102190.69;5037592;28;20029;-64
2022/08/08 05:11:39;;;;;;;7.75;3.72;;;;;;;22.28;40.22;102198.03;5054226;28;20029;-64
2022/08/08 05:14:04;;;;;;;13.63;5.03;;;;;;;22.38;40.41;102196.81;5054145;28;20021;-64
2022/08/08 05:16:30;;;;;;;5.63;4.10;;;;;;;22.46;40.88;102185.88;5055345;28;20047;-64
2022/08/08 05:18:56;;;;;;;10.63;4.70;;;;;;;22.60;41.09;102189.78;5037567;28;20029;-64
2022/08/08 05:21:21;;;;;;;5.95;4.05;;;;;;;22.76;41.02;102191.63;5037221;28;20528;-64
2022/08/08 05:23:46;;;;;;;10.38;5.40;;;;;;;22.90;40.80;102190.91;5054817;28;20036;-64
2022/08/08 05:26:12;;;;;;;8.85;4.20;;;;;;;23.02;40.90;102184.03;5053952;28;20032;-64
2022/08/08 05:28:37;;;;;;;9.95;4.55;;;;;;;23.14;41.14;102194.38;5053781;28;20475;-64
2022/08/08 05:31:02;;;;;;;7.80;4.55;;;;;;;23.29;41.23;102197.22;5055016;28;20060;-64
2022/08/08 05:33:28;;;;;;;6.68;4.55;;;;;;;23.40;41.04;102198.75;5037198;28;20402;-64
2022/08/08 05:35:53;;;;;;;14.20;4.57;;;;;;;23.51;40.49;102192.84;5037177;28;20029;-64
2022/08/08 05:38:21;;;;;;;10.98;4.38;;;;;;;23.67;41.18;102185.41;5037087;28;20039;-64
2022/08/08 05:40:49;;;;;;;12.40;4.93;;;;;;;23.87;41.23;102184.94;5053759;28;20502;-65
2022/08/08 05:43:19;;;;;;;9.30;5.43;;;;;;;24.11;41.32;102198.44;5036951;28;20112;-65
2022/08/08 05:45:45;;;;;;;11.40;5.38;;;;;;;24.34;40.89;102199.28;5054764;28;20036;-65
2022/08/08 05:48:11;;;;;;;11.27;4.93;;;;;;;24.56;40.87;102197.50;5036825;28;20033;-64
2022/08/08 05:50:36;;;;;;;12.57;5.00;;;;;;;24.74;40.43;102189.75;5053545;28;20025;-64
2022/08/08 05:53:02;;;;;;;11.13;4.85;;;;;;;24.85;40.51;102203.03;5054662;28;20471;-64
2022/08/08 05:55:28;;;;;;;7.25;4.60;;;;;;;25.05;40.16;102203.31;5053411;28;20017;-64
2022/08/08 05:57:55;;;;;;;8.30;5.63;;;;;;;25.27;40.16;102210.56;5036532;28;20027;-64
2022/08/08 06:00:20;;;;;;;9.00;5.20;;;;;;;25.39;40.64;102211.78;5054536;28;20413;-64
2022/08/08 06:05:32;;;;;;;7.85;4.82;;;;;;;25.74;39.98;102221.09;5053264;28;20043;-64
2022/08/08 06:07:58;;;;;;;7.75;4.55;;;;;;;25.96;39.76;102215.41;5053133;28;20032;-65
2022/08/08 06:10:24;;;;;;;8.45;4.65;;;;;;;26.19;39.36;102219.88;5036242;28;20029;-64
2022/08/08 06:12:50;;;;;;;13.77;4.70;;;;;;;26.34;39.49;102223.38;5036306;28;20402;-64
2022/08/08 06:15:15;;;;;;;7.30;4.53;;;;;;;26.55;39.12;102226.09;5036280;28;20104;-65
2022/08/08 06:17:41;;;;;;;10.60;5.03;;;;;;;26.59;39.60;102227.41;5052968;28;20048;-64
2022/08/08 06:20:11;;;;;;;10.60;4.85;;;;;;;26.84;38.75;102233.31;5036189;28;20395;-66
2022/08/08 06:22:37;;;;;;;7.95;4.50;;;;;;;27.08;38.31;102232.84;5052730;28;20049;-64
2022/08/08 06:25:04;;;;;;;8.15;4.28;;;;;;;27.26;38.85;102235.88;5052686;28;20040;-64
2022/08/08 06:27:41;;;;;;;8.63;4.78;;;;;;;27.40;38.58;102236.78;5036139;28;20017;-65
2022/08/08 06:30:08;;;;;;;7.43;4.05;;;;;;;27.51;38.98;102233.47;5052780;28;20044;-65
2022/08/08 06:32:41;;;;;;;9.32;4.50;;;;;;;27.59;38.63;102233.28;5052670;28;20075;-64
2022/08/08 06:35:10;;;;;;;6.28;4.28;;;;;;;27.60;38.43;102227.59;5051867;28;20446;-65
2022/08/08 06:37:37;;;;;;;11.43;4.63;;;;;;;27.77;38.33;102236.31;5052604;28;20024;-65
2022/08/08 06:40:06;;;;;;;10.50;5.15;;;;;;;28.01;37.86;102234.88;5035919;28;20501;-65
2022/08/08 06:42:35;;;;;;;6.63;4.63;;;;;;;27.98;37.92;102238.91;5052670;28;20059;-64
2022/08/08 06:45:02;;;;;;;7.05;4.03;;;;;;;27.98;38.27;102227.88;5052379;28;20024;-65
2022/08/08 06:47:28;;;;;;;5.43;3.80;;;;;;;28.09;37.75;102234.69;5035747;28;20448;-64
2022/08/08 06:49:53;;;;;;;6.82;4.35;;;;;;;28.39;37.39;102243.44;5035597;28;20024;-65
2022/08/08 06:52:19;;;;;;;11.95;4.43;;;;;;;28.49;37.23;102232.81;5052329;28;20025;-65
2022/08/08 06:54:45;;;;;;;7.68;5.00;;;;;;;28.55;37.12;102231.97;5035947;28;20390;-65
2022/08/08 06:57:10;;;;;;;8.77;3.97;;;;;;;28.64;36.82;102230.72;5035656;28;20025;-65
2022/08/08 06:59:36;;;;;;;9.30;4.70;;;;;;;28.76;37.58;102229.00;5053390;28;20021;-65
2022/08/08 07:02:04;;;;;;;6.93;4.10;;;;;;;29.03;36.98;102230.66;5053354;28;20033;-65
2022/08/08 07:04:48;;;;;;;10.43;4.43;;;;;;;29.23;36.34;102242.50;5035404;28;20499;-65
2022/08/08 07:07:17;;;;;;;10.70;4.13;;;;;;;29.45;36.02;102241.13;5052082;28;20017;-65
2022/08/08 07:09:58;;;;;;;13.70;4.10;;;;;;;29.62;36.20;102241.47;5035627;28;20027;-65
2022/08/08 07:12:38;;;;;;;8.73;4.57;;;;;;;29.80;36.13;102247.16;5051982;28;20545;-65
2022/08/08 07:15:06;;;;;;;10.70;5.40;;;;;;;29.94;36.12;102245.16;5052013;28;20036;-65
2022/08/08 07:17:48;;;;;;;6.22;4.28;;;;;;;30.05;36.19;102247.19;5053334;28;20522;-64
2022/08/08 07:20:18;;;;;;;6.65;4.30;;;;;;;30.15;35.29;102243.97;5035262;28;20028;-65
2022/08/08 07:23:03;;;;;;;6.97;4.50;;;;;;;30.34;35.41;102256.78;5051885;28;20072;-68
2022/08/08 07:25:33;;;;;;;9.25;5.03;;;;;;;30.43;35.34;102267.34;5051784;28;20025;-65
2022/08/08 07:28:21;;;;;;;10.07;4.32;;;;;;;30.38;35.61;102260.81;5035139;28;20422;-65
2022/08/08 07:30:47;;;;;;;7.88;3.70;;;;;;;30.49;34.97;102260.06;5051903;28;20478;-65
2022/08/08 07:33:14;;;;;;;6.60;4.07;;;;;;;30.66;35.05;102260.34;5051910;28;20108;-65
2022/08/08 07:35:40;;;;;;;7.43;4.18;;;;;;;30.89;34.80;102263.31;5052957;28;20040;-64
2022/08/08 07:38:08;;;;;;;8.07;4.15;;;;;;;31.11;34.17;102259.94;5051814;28;20048;-65
2022/08/08 07:40:34;;;;;;;5.95;4.18;;;;;;;31.23;34.21;102257.25;5051651;28;20017;-65
2022/08/08 07:43:01;;;;;;;6.50;3.72;;;;;;;31.35;33.99;102262.84;5052984;28;20394;-65
2022/08/08 07:45:28;;;;;;;5.78;3.53;;;;;;;31.55;33.38;102267.09;5035117;28;20021;-64
2022/08/08 07:47:53;;;;;;;7.05;3.78;;;;;;;31.68;33.46;102269.69;5054902;28;20073;-65
2022/08/08 07:50:20;;;;;;;6.95;3.10;;;;;;;31.81;33.89;102263.13;5055644;28;20024;-64
2022/08/08 07:52:58;;;;;;;5.90;3.10;;;;;;;32.01;33.29;102265.63;5055772;28;20029;-65
2022/08/08 07:55:26;;;;;;;5.05;3.00;;;;;;;32.14;33.06;102277.38;5055551;28;20017;-65
2022/08/08 07:58:14;;;;;;;6.82;2.63;;;;;;;32.28;32.45;102272.47;5056813;28;20025;-65
2022/08/08 08:00:58;;;;;;;5.57;2.85;;;;;;;32.38;32.65;102277.44;5038921;28;20037;-65
2022/08/08 08:03:44;;;;;;;6.97;2.83;;;;;;;32.42;32.39;102279.47;5039071;28;20107;-65
2022/08/08 08:06:12;;;;;;;5.05;3.63;;;;;;;32.44;31.94;102282.84;5056603;28;20029;-65
2022/08/08 08:08:38;;;;;;;5.20;2.40;;;;;;;32.58;31.95;102278.00;5055373;28;20025;-64
2022/08/08 08:11:10;;;;;;;3.25;2.28;;;;;;;32.71;31.45;102277.75;5056542;28;20024;-64
2022/08/08 08:14:00;;;;;;;6.78;2.30;;;;;;;33.04;31.25;102282.69;5038594;28;20021;-65
2022/08/08 08:16:28;;;;;;;4.53;2.55;;;;;;;33.26;31.35;102281.00;5056418;28;20397;-65
2022/08/08 08:19:00;;;;;;;5.40;2.42;;;;;;;33.42;31.06;102280.22;5038795;28;20496;-65
2022/08/08 08:21:41;;;;;;;2.65;1.90;;;;;;;33.49;31.11;102274.53;5056291;28;20049;-64
2022/08/08 08:24:06;;;;;;;3.08;2.53;;;;;;;33.69;30.96;102278.63;5055150;28;20398;-66
2022/08/08 08:26:32;;;;;;;5.68;2.60;;;;;;;33.79;30.60;102276.03;5038302;28;20029;-65
2022/08/08 08:28:57;;;;;;;3.33;2.17;;;;;;;33.90;30.12;102274.28;5038318;28;20482;-65
2022/08/08 08:31:23;;;;;;;3.17;2.20;;;;;;;34.06;30.40;102276.25;5038412;28;20025;-65
2022/08/08 08:33:48;;;;;;;3.40;2.08;;;;;;;34.30;30.32;102272.31;5056211;28;20378;-65
2022/08/08 08:36:14;;;;;;;4.28;2.30;;;;;;;34.37;29.62;102272.97;5055019;28;20068;-65
2022/08/08 08:38:40;;;;;;;4.70;2.00;;;;;;;34.40;29.54;102277.19;5054930;28;20108;-65
2022/08/08 08:41:07;;;;;;;4.28;1.85;;;;;;;34.49;29.87;102278.47;5055996;28;20069;-65
2022/08/08 08:43:34;;;;;;;7.45;2.38;;;;;;;34.59;29.93;102273.13;5054663;28;20494;-65
2022/08/08 08:46:00;;;;;;;2.30;2.10;;;;;;;34.74;29.59;102276.13;5054722;28;20601;-66
2022/08/08 08:48:26;;;;;;;6.60;2.30;;;;;;;34.82;29.21;102275.69;5055833;28;20107;-66
2022/08/08 08:50:53;;;;;;;4.97;2.72;;;;;;;34.93;28.76;102280.31;5054504;28;20027;-66
2022/08/08 08:53:20;;;;;;;2.55;1.88;;;;;;;35.06;28.95;102282.78;5054695;28;20024;-65
2022/08/08 08:55:46;;;;;;;3.42;1.98;;;;;;;35.10;28.78;102280.31;5054565;28;20047;-66
2022/08/08 08:58:24;;;;;;;3.72;2.05;;;;;;;35.17;29.11;102277.34;5053806;28;20071;-65
2022/08/08 09:00:49;;;;;;;2.08;1.70;;;;;;;35.36;28.40;102276.78;5037949;28;20090;-65
2022/08/08 09:03:15;;;;;;;5.50;2.22;;;;;;;35.52;28.76;102286.16;5037830;28;20487;-65
2022/08/08 09:05:42;;;;;;;2.47;1.70;;;;;;;35.64;28.28;102290.56;5054340;28;20021;-65
2022/08/08 09:08:08;;;;;;;5.68;2.33;;;;;;;35.80;28.20;102286.00;5037544;28;20033;-65
2022/08/08 09:10:37;;;;;;;4.22;1.65;;;;;;;35.93;27.91;102291.16;5054206;28;20433;-65
2022/08/08 09:13:05;;;;;;;2.38;2.00;;;;;;;36.05;28.06;102294.66;5055457;28;20371;-65
2022/08/08 09:15:31;;;;;;;2.60;1.75;;;;;;;36.18;27.73;102287.84;5054189;28;20017;-65
2022/08/08 09:17:57;;;;;;;4.78;2.10;;;;;;;36.35;27.73;102279.34;5054119;28;20433;-65
2022/08/08 09:20:25;;;;;;;4.75;1.95;;;;;;;36.51;27.40;102289.56;5037369;28;20025;-65
2022/08/08 09:22:52;;;;;;;2.03;1.80;;;;;;;36.66;26.78;102284.06;5053935;28;20053;-65
2022/08/08 09:25:18;;;;;;;4.63;2.22;;;;;;;36.79;26.92;102283.63;5037547;28;20074;-65
2022/08/08 09:27:43;;;;;;;3.15;1.88;;;;;;;36.94;27.00;102283.72;5053950;28;20056;-65
2022/08/08 09:30:13;;;;;;;2.85;1.60;;;;;;;37.11;26.78;102289.16;5037191;28;20120;-66
2022/08/08 09:32:49;;;;;;;4.65;1.80;;;;;;;37.28;26.29;102284.22;5053919;28;20024;-65
2022/08/08 09:35:18;;;;;;;3.45;1.65;;;;;;;37.38;26.53;102275.06;5037177;28;20028;-65
2022/08/08 09:37:52;;;;;;;2.90;1.60;;;;;;;37.51;25.94;102274.56;5037207;28;20036;-66
2022/08/08 09:40:19;;;;;;;4.63;1.60;;;;;;;37.62;25.72;102279.09;5037052;28;20392;-66
2022/08/08 09:42:47;;;;;;;2.97;1.88;;;;;;;37.74;26.13;102274.09;5036957;28;20124;-66
2022/08/08 09:45:19;;;;;;;4.00;1.77;;;;;;;37.79;26.13;102279.69;5036970;28;20486;-66
2022/08/08 09:47:45;;;;;;;2.63;1.80;;;;;;;37.83;26.23;102278.03;5054800;28;20029;-66
2022/08/08 09:50:16;;;;;;;2.90;1.40;;;;;;;37.92;25.23;102270.81;5053592;28;20090;-66
2022/08/08 09:52:49;;;;;;;1.60;1.30;;;;;;;37.99;25.14;102268.59;5053470;28;20075;-65
2022/08/08 09:55:15;;;;;;;5.05;1.83;;;;;;;38.14;25.52;102264.94;5053327;28;20025;-66
2022/08/08 09:57:47;;;;;;;2.78;1.38;;;;;;;38.33;25.12;102266.94;5053393;28;20078;-65
2022/08/08 10:00:15;;;;;;;2.45;1.98;;;;;;;38.63;25.16;102273.69;5036673;28;20027;-65
2022/08/08 10:02:45;;;;;;;4.28;2.20;;;;;;;39.05;25.54;102265.78;5036587;28;20032;-66
2022/08/08 10:05:12;;;;;;;3.50;3.30;;;;;;;39.75;24.80;102277.88;5054298;28;20024;-66
2022/08/08 10:07:50;;;;;;;3.35;1.92;;;;;;;40.65;24.32;102277.22;5036474;28;20028;-66
2022/08/08 10:10:35;;;;;;;2.40;1.70;;;;;;;41.91;22.76;102282.56;5052061;28;20506;-66
2022/08/08 10:13:01;;;;;;;4.72;1.90;;;;;;;42.86;22.04;102268.81;5053059;28;20032;-66
2022/08/08 10:15:36;;;;;;;3.83;2.22;;;;;;;42.49;21.82;102258.50;5053014;28;20108;-66
2022/08/08 10:18:01;;;;;;;5.05;1.83;;;;;;;42.04;22.52;102259.25;5053553;28;20024;-66
2022/08/08 10:20:28;;;;;;;2.15;1.45;;;;;;;41.73;22.65;102270.97;5054558;28;20124;-66
2022/08/08 10:22:59;;;;;;;2.92;1.40;;;;;;;41.54;22.91;102258.84;5053873;28;20045;-65
2022/08/08 10:25:25;;;;;;;3.60;1.60;;;;;;;41.46;22.68;102259.47;5052793;28;20025;-66
2022/08/08 10:27:52;;;;;;;3.70;1.48;;;;;;;41.50;22.46;102257.75;5054032;28;20454;-66
2022/08/08 10:30:19;;;;;;;2.13;1.40;;;;;;;41.61;22.44;102264.91;5052733;28;20029;-66
2022/08/08 10:32:55;;;;;;;6.95;2.15;;;;;;;41.75;22.05;102254.59;5053987;28;20492;-66
2022/08/08 10:35:26;;;;;;;2.95;1.70;;;;;;;41.86;21.82;102257.25;5052858;28;20183;-65
2022/08/08 10:37:59;;;;;;;1.73;1.45;;;;;;;42.02;21.64;102258.72;5036039;28;20024;-66
2022/08/08 10:40:27;;;;;;;1.30;1.20;;;;;;;42.19;21.55;102259.00;5035879;28;20063;-65
2022/08/08 10:42:58;;;;;;;2.10;1.40;;;;;;;42.40;21.33;102253.88;5052587;28;20390;-65
2022/08/08 10:45:24;;;;;;;1.27;1.17;;;;;;;42.58;21.61;102256.66;5052330;28;20025;-66
2022/08/08 10:47:57;;;;;;;2.80;1.48;;;;;;;42.78;21.16;102256.28;5052496;28;20040;-66
2022/08/08 10:50:34;;;;;;;2.53;1.95;;;;;;;42.93;21.12;102253.16;5052307;28;20025;-66
2022/08/08 10:53:10;;;;;;;1.95;1.65;;;;;;;43.07;20.67;102246.72;5048935;28;20428;-66
2022/08/08 10:55:36;;;;;;;4.55;1.80;;;;;;;43.20;21.09;102243.03;5052321;28;20356;-66
2022/08/08 10:58:07;;;;;;;2.58;2.30;;;;;;;43.34;20.71;102246.72;5035819;28;20040;-66
2022/08/08 11:00:33;;;;;;;5.20;2.72;;;;;;;43.42;20.53;102243.16;5053497;28;20028;-66
2022/08/08 11:03:10;;;;;;;3.67;2.22;;;;;;;43.56;20.38;102249.63;5052182;28;20032;-66
2022/08/08 11:05:47;;;;;;;3.85;1.77;;;;;;;43.54;20.60;102246.28;5052057;28;20066;-66
2022/08/08 11:08:25;;;;;;;3.80;1.67;;;;;;;43.56;20.56;102235.50;5052156;28;20037;-66
2022/08/08 11:11:04;;;;;;;4.93;1.60;;;;;;;43.60;20.29;102244.19;5052146;28;20108;-66
2022/08/08 11:13:45;;;;;;;9.55;2.00;;;;;;;43.63;20.63;102227.44;5035433;28;20371;-66
2022/08/08 11:16:21;;;;;;;1.80;1.65;;;;;;;43.68;20.06;102232.13;5035246;28;20032;-66
2022/08/08 11:18:49;;;;;;;3.88;1.80;;;;;;;43.68;20.67;102244.25;5035495;28;20032;-66
2022/08/08 11:21:15;;;;;;;1.60;1.50;;;;;;;43.54;20.50;102239.78;5051377;28;20052;-66
2022/08/08 11:23:42;;;;;;;2.65;1.80;;;;;;;43.63;19.79;102249.19;5053126;28;20033;-66
2022/08/08 11:26:10;;;;;;;4.75;1.50;;;;;;;43.66;19.98;102238.09;5052113;28;20421;-67
2022/08/08 11:28:36;;;;;;;3.92;1.80;;;;;;;43.65;20.15;102239.25;5035244;28;20398;-66
2022/08/08 11:31:03;;;;;;;1.50;1.35;;;;;;;43.67;20.23;102236.09;5051878;28;20029;-66
2022/08/08 11:33:31;;;;;;;3.30;1.75;;;;;;;43.66;19.78;102238.09;5035485;28;20033;-66
2022/08/08 11:35:57;;;;;;;2.35;1.67;;;;;;;43.66;19.63;102226.81;5051856;28;20043;-66
2022/08/08 11:38:24;;;;;;;4.30;1.27;;;;;;;43.72;19.78;102231.19;5053142;28;20103;-66
2022/08/08 11:40:51;;;;;;;1.95;1.63;;;;;;;43.79;19.26;102231.59;5051930;28;20032;-66
2022/08/08 11:43:17;;;;;;;2.97;1.40;;;;;;;43.86;19.72;102231.97;5051801;28;20120;-66
2022/08/08 11:45:44;;;;;;;1.90;1.60;;;;;;;43.92;19.27;102233.53;5052979;28;20029;-66
2022/08/08 11:48:10;;;;;;;3.35;1.38;;;;;;;43.93;19.61;102238.03;5051895;28;20048;-66
2022/08/08 11:50:36;;;;;;;2.72;1.38;;;;;;;43.93;19.17;102234.38;5051608;28;20027;-66
2022/08/08 11:53:02;;;;;;;2.20;1.40;;;;;;;43.94;19.61;102222.75;5035046;28;20060;-66
2022/08/08 11:55:27;;;;;;;1.85;1.35;;;;;;;43.99;19.26;102241.56;5051743;28;20527;-66